Terminal Aerodrome Forecast
Issued by NWS

Home | Current Version | Previous Version | Text Only | Print | Product List | Glossary On
Versions: 1 2 3 4 5 6 7 8 9 10 11 12 13 14 15 16 17 18
000
FTUS43 KDVN 011700 RRA
TAFBRL
TAF
KBRL 011747Z 0118/0218 04012KT 1SM -SN BR OVC004
      TEMPO 0118/0120 1/2SM SN FZFG VV008
     FM012000 04022G30KT 1/2SM -SN BLSN OVC015
     FM012300 01020G28KT 3SM -SHSN OVC018
     FM020400 36015G24KT 5SM BLSN BKN020
     FM020800 34011KT P6SM SCT020=

USA.gov is the U.S. government's official web portal to all federal, state and local government web resources and services.